Time;durP1;ratioP1;P1;durP2;ratioP2;P2;SDS_P1;SDS_P2;PMS_P1;PMS_P2;Temp;Humidity;BMP_temperature;BMP_pressure;BME280_temperature;BME280_humidity;BME280_pressure;Samples;Min_cycle;Max_cycle;Signal;HPM_P1;HPM_P2
2022/05/01 00:01:41;;;;;;;10.90;8.23;;;;;;;11.78;54.96;101742.63;5092626;28;20036;-46
2022/05/01 00:04:07;;;;;;;8.55;7.45;;;;;;;11.93;54.85;101747.34;5092607;28;20035;-43
2022/05/01 00:06:33;;;;;;;9.43;7.65;;;;;;;12.07;54.02;101752.03;5092722;28;20394;-43
2022/05/01 00:09:00;;;;;;;11.63;8.07;;;;;;;11.91;54.79;101728.66;5093094;28;20107;-46
2022/05/01 00:11:26;;;;;;;9.55;8.50;;;;;;;11.86;55.16;101743.63;5092568;28;20039;-44
2022/05/01 00:13:53;;;;;;;12.02;8.60;;;;;;;11.75;55.92;101745.63;5093481;28;20031;-44
2022/05/01 00:16:19;;;;;;;9.63;8.68;;;;;;;11.63;56.03;101737.09;5093154;28;20533;-45
2022/05/01 00:18:45;;;;;;;8.93;7.32;;;;;;;11.72;55.91;101748.69;5098308;28;20086;-46
2022/05/01 00:21:11;;;;;;;9.02;7.40;;;;;;;11.80;55.92;101739.75;5081597;28;20024;-42
2022/05/01 00:23:38;;;;;;;10.15;8.30;;;;;;;11.63;56.30;101726.31;5079599;28;20035;-42
2022/05/01 00:26:06;;;;;;;9.38;8.48;;;;;;;11.65;56.19;101744.16;5094243;28;20028;-43
2022/05/01 00:28:33;;;;;;;12.88;8.85;;;;;;;11.49;56.99;101731.53;5093840;28;20475;-43
2022/05/01 00:30:59;;;;;;;7.85;6.97;;;;;;;11.58;55.87;101733.22;5093949;28;20054;-44
2022/05/01 00:36:26;;;;;;;8.35;7.55;;;;;;;11.47;56.71;101726.31;5064252;28;20047;-43
2022/05/01 00:38:57;;;;;;;9.98;6.70;;;;;;;11.51;56.17;101733.03;5075282;28;20388;-42
2022/05/01 00:41:24;;;;;;;8.88;7.93;;;;;;;11.41;57.17;101719.78;5093214;28;20480;-50
2022/05/01 00:44:03;;;;;;;9.27;8.32;;;;;;;11.41;57.15;101716.25;5074953;28;20511;-46
2022/05/01 00:46:31;;;;;;;8.85;8.05;;;;;;;11.31;57.54;101710.19;5074852;28;20052;-43
2022/05/01 00:49:00;;;;;;;10.60;7.75;;;;;;;11.30;56.88;101712.03;5092796;28;20391;-43
2022/05/01 00:51:28;;;;;;;9.60;7.85;;;;;;;11.36;56.94;101719.44;5093124;28;20043;-44
2022/05/01 00:53:54;;;;;;;8.57;7.78;;;;;;;11.29;57.01;101709.50;5092791;28;20033;-44
2022/05/01 00:56:20;;;;;;;10.68;7.78;;;;;;;11.24;57.75;101718.09;5058718;28;20055;-43
2022/05/01 00:58:48;;;;;;;7.75;6.90;;;;;;;11.24;57.45;101715.41;5096223;28;20071;-43
2022/05/01 01:01:15;;;;;;;8.65;7.55;;;;;;;11.20;57.14;101706.00;5096225;28;20074;-44
2022/05/01 01:03:41;;;;;;;8.00;7.15;;;;;;;11.22;57.46;101712.03;5096080;28;20040;-44
2022/05/01 01:06:07;;;;;;;9.05;7.72;;;;;;;11.17;57.40;101717.91;5096342;28;20036;-43
2022/05/01 01:08:33;;;;;;;7.82;7.18;;;;;;;11.21;57.31;101721.94;5096402;28;20472;-44
2022/05/01 01:10:59;;;;;;;7.93;6.18;;;;;;;11.16;56.95;101705.50;5095913;28;20491;-42
2022/05/01 01:13:27;;;;;;;12.60;8.80;;;;;;;11.01;58.08;101708.00;5096046;28;20027;-44
2022/05/01 01:15:54;;;;;;;17.15;9.77;;;;;;;10.93;58.17;101716.03;5096014;28;20456;-42
2022/05/01 01:18:20;;;;;;;12.75;8.48;;;;;;;10.81;58.49;101714.69;5095776;28;20085;-42
2022/05/01 01:20:46;;;;;;;9.20;6.32;;;;;;;10.88;58.11;101715.66;5096162;28;20028;-43
2022/05/01 01:23:14;;;;;;;10.15;7.68;;;;;;;10.79;58.20;101706.78;5078807;28;20035;-43
2022/05/01 01:25:40;;;;;;;14.80;7.57;;;;;;;10.72;58.39;101696.84;5098338;28;20381;-43
2022/05/01 01:28:08;;;;;;;10.68;8.85;;;;;;;10.56;58.54;101679.66;5098623;28;20024;-43
2022/05/01 01:33:24;;;;;;;11.57;9.55;;;;;;;10.60;59.52;101707.03;5080954;28;20460;-44
2022/05/01 01:35:52;;;;;;;10.98;8.85;;;;;;;10.48;58.66;101684.19;5096213;28;20387;-43
2022/05/01 01:38:17;;;;;;;12.75;8.80;;;;;;;10.52;59.59;101699.81;5078378;28;20115;-44
2022/05/01 01:40:51;;;;;;;8.70;7.90;;;;;;;10.56;59.22;101700.31;5095987;28;20066;-45
2022/05/01 01:43:19;;;;;;;12.02;8.82;;;;;;;10.55;59.82;101706.69;5096272;28;20476;-43
2022/05/01 01:45:46;;;;;;;9.10;8.30;;;;;;;10.62;59.25;101700.53;5078025;28;20059;-43
2022/05/01 01:48:14;;;;;;;10.68;9.43;;;;;;;10.63;59.65;101706.72;5096475;28;20028;-44
2022/05/01 01:50:41;;;;;;;10.23;8.82;;;;;;;10.59;59.40;101698.16;5095886;28;20062;-43
2022/05/01 01:53:08;;;;;;;8.23;7.43;;;;;;;10.70;58.87;101696.16;5095998;28;20373;-43
2022/05/01 01:55:37;;;;;;;8.10;6.80;;;;;;;10.79;58.07;101696.03;5096179;28;20047;-48
2022/05/01 01:58:04;;;;;;;7.85;7.10;;;;;;;10.88;57.64;101688.78;5096093;28;20028;-43
2022/05/01 02:00:29;;;;;;;13.30;8.85;;;;;;;10.88;57.43;101678.03;5044931;28;20040;-44
2022/05/01 02:02:59;;;;;;;9.52;8.00;;;;;;;10.99;57.08;101687.66;5095979;28;20086;-43
2022/05/01 02:05:26;;;;;;;13.63;8.88;;;;;;;11.04;56.68;101682.63;5096200;28;20032;-46
2022/05/01 02:07:52;;;;;;;11.38;8.82;;;;;;;11.03;56.58;101675.53;5095233;28;20043;-43
2022/05/01 02:10:18;;;;;;;11.00;7.78;;;;;;;11.09;55.71;101682.09;5096955;28;20114;-44
2022/05/01 02:12:44;;;;;;;10.07;8.27;;;;;;;11.08;55.85;101665.13;5096506;28;20024;-43
2022/05/01 02:15:10;;;;;;;12.35;8.32;;;;;;;11.10;55.50;101670.34;5095217;28;20337;-43
2022/05/01 02:17:38;;;;;;;8.52;6.95;;;;;;;11.11;55.46;101678.25;5095081;28;20036;-45
2022/05/01 02:20:05;;;;;;;8.30;7.53;;;;;;;11.11;55.48;101670.19;5095085;28;20417;-43
2022/05/01 02:22:31;;;;;;;13.35;7.90;;;;;;;11.04;55.62;101653.88;5094893;28;20106;-43
2022/05/01 02:24:56;;;;;;;10.35;7.43;;;;;;;11.15;55.21;101660.78;5096309;28;20082;-44
2022/05/01 02:27:22;;;;;;;10.63;8.20;;;;;;;10.99;54.98;101634.72;5097259;28;20060;-45
2022/05/01 02:29:48;;;;;;;9.93;8.43;;;;;;;11.15;55.28;101660.78;5081112;28;20035;-43
2022/05/01 02:32:14;;;;;;;8.85;7.55;;;;;;;11.04;54.68;101639.59;5077480;28;20128;-44
2022/05/01 02:34:40;;;;;;;9.45;8.48;;;;;;;11.16;54.69;101645.47;5096655;28;20098;-43
2022/05/01 02:37:06;;;;;;;9.50;8.00;;;;;;;11.19;54.71;101650.53;5083738;28;20115;-44
2022/05/01 02:39:33;;;;;;;8.95;7.65;;;;;;;11.20;54.83;101646.84;5081975;28;20030;-43
2022/05/01 02:41:59;;;;;;;12.13;8.73;;;;;;;11.20;54.73;101649.53;5099928;28;20394;-43
2022/05/01 02:44:25;;;;;;;8.05;6.88;;;;;;;11.17;54.74;101633.72;5094077;28;20024;-43
2022/05/01 02:46:51;;;;;;;9.55;8.10;;;;;;;11.15;54.93;101639.25;5074807;28;20032;-43
2022/05/01 02:49:16;;;;;;;9.45;8.30;;;;;;;11.19;54.34;101637.91;5074226;28;20040;-43
2022/05/01 02:51:42;;;;;;;10.88;8.45;;;;;;;11.18;54.50;101632.69;5056485;28;20033;-45
2022/05/01 02:54:08;;;;;;;8.38;7.68;;;;;;;11.18;54.48;101635.38;5074177;28;20115;-45
2022/05/01 02:56:34;;;;;;;11.30;7.88;;;;;;;11.18;54.48;101636.25;5074483;28;20033;-44
2022/05/01 02:59:01;;;;;;;10.20;7.70;;;;;;;11.18;54.37;101633.56;5080617;28;20087;-43
2022/05/01 03:01:29;;;;;;;9.25;7.53;;;;;;;11.19;54.48;101640.59;5048713;28;20032;-43
2022/05/01 03:03:55;;;;;;;10.25;8.38;;;;;;;11.18;54.27;101633.56;5081923;28;20472;-43
2022/05/01 03:06:21;;;;;;;8.65;7.80;;;;;;;11.17;54.64;101639.09;5078983;28;20040;-43
2022/05/01 03:08:47;;;;;;;8.93;7.28;;;;;;;11.15;54.20;101633.88;5074469;28;20435;-45
2022/05/01 03:11:13;;;;;;;8.70;7.82;;;;;;;11.13;54.80;101641.28;5056644;28;20546;-43
2022/05/01 03:13:39;;;;;;;7.90;7.10;;;;;;;11.12;54.34;101633.38;5074272;28;20036;-43
2022/05/01 03:16:05;;;;;;;12.25;7.13;;;;;;;11.11;54.41;101634.41;5074156;28;20028;-42
2022/05/01 03:24:01;;;;;;;8.68;7.63;;;;;;;11.07;54.60;101638.41;5058354;28;20033;-43
2022/05/01 03:26:27;;;;;;;7.97;7.18;;;;;;;11.06;54.58;101631.38;5055759;28;20082;-44
2022/05/01 03:28:53;;;;;;;8.15;7.35;;;;;;;11.03;54.55;101637.91;5073563;28;20461;-43
2022/05/01 03:31:19;;;;;;;10.85;7.97;;;;;;;10.95;54.68;101630.69;5055523;28;20418;-43
2022/05/01 03:33:50;;;;;;;8.88;7.85;;;;;;;11.00;54.95;101633.72;5073200;28;20337;-45
2022/05/01 03:36:16;;;;;;;8.05;6.78;;;;;;;10.94;54.61;101631.72;5073739;28;20043;-44
2022/05/01 03:38:43;;;;;;;9.13;7.40;;;;;;;10.97;54.50;101636.72;5073145;28;20128;-43
2022/05/01 03:41:12;;;;;;;8.32;7.43;;;;;;;10.97;54.80;101636.72;5073290;28;20507;-45
2022/05/01 03:43:38;;;;;;;12.13;8.18;;;;;;;10.97;54.42;101628.66;5055435;28;20060;-45
2022/05/01 03:46:05;;;;;;;10.68;8.27;;;;;;;10.94;54.60;101630.84;5072352;28;20040;-43
2022/05/01 03:48:32;;;;;;;10.27;8.30;;;;;;;10.82;54.89;101612.38;5073235;28;20503;-43
2022/05/01 03:50:58;;;;;;;9.10;8.25;;;;;;;10.93;55.10;101624.66;5073119;28;20108;-43
2022/05/01 03:53:24;;;;;;;18.73;8.55;;;;;;;10.88;55.20;101615.41;5073429;28;20032;-43
2022/05/01 03:55:52;;;;;;;9.10;8.20;;;;;;;10.82;55.17;101614.22;5073572;28;20457;-43
2022/05/01 03:58:19;;;;;;;9.68;8.57;;;;;;;10.80;55.12;101605.50;5073540;28;20028;-43
2022/05/01 04:00:47;;;;;;;12.07;9.07;;;;;;;10.85;55.09;101611.22;5074673;28;20036;-43
2022/05/01 04:03:15;;;;;;;12.25;8.43;;;;;;;10.79;55.25;101610.03;5075753;28;20095;-43
2022/05/01 04:05:41;;;;;;;12.02;9.30;;;;;;;10.68;55.74;101585.31;5075217;28;20053;-43
2022/05/01 04:08:08;;;;;;;12.88;9.57;;;;;;;10.81;55.80;101610.72;5073691;28;20036;-44
2022/05/01 04:10:37;;;;;;;11.43;9.20;;;;;;;10.81;55.64;101609.88;5073052;28;20195;-44
2022/05/01 04:13:03;;;;;;;9.48;8.55;;;;;;;10.79;55.37;101601.97;5072682;28;20476;-44
2022/05/01 04:15:28;;;;;;;9.13;7.43;;;;;;;10.80;55.29;101603.63;5072888;28;20103;-44
2022/05/01 04:17:54;;;;;;;11.75;8.82;;;;;;;10.79;55.67;101599.28;5054649;28;20082;-43
2022/05/01 04:20:20;;;;;;;9.20;7.90;;;;;;;10.67;55.73;101581.81;5072643;28;20029;-46
2022/05/01 04:22:47;;;;;;;9.27;8.27;;;;;;;10.63;55.96;101581.28;5072983;28;20526;-44
2022/05/01 04:25:16;;;;;;;12.95;8.98;;;;;;;10.73;56.37;101599.09;5072302;28;20086;-43
2022/05/01 04:27:44;;;;;;;13.25;9.57;;;;;;;10.52;56.01;101562.00;5072710;28;20499;-43
2022/05/01 04:30:13;;;;;;;11.30;8.48;;;;;;;10.73;55.84;101597.25;5072712;28;20064;-43
2022/05/01 04:32:51;;;;;;;10.70;9.57;;;;;;;10.73;56.07;101593.72;5072271;28;20111;-43
2022/05/01 04:35:22;;;;;;;38.13;10.38;;;;;;;10.69;56.34;101582.47;5037797;28;20452;-44
2022/05/01 04:37:48;;;;;;;16.02;10.75;;;;;;;10.72;56.94;101589.38;5037917;28;20062;-43
2022/05/01 04:40:14;;;;;;;10.93;9.45;;;;;;;10.71;56.83;101588.53;5054795;28;20025;-44
2022/05/01 04:42:41;;;;;;;12.07;9.93;;;;;;;10.64;56.76;101584.81;5072710;28;20116;-44
2022/05/01 04:45:08;;;;;;;12.80;10.15;;;;;;;10.71;56.11;101593.06;5071804;28;20094;-44
2022/05/01 04:47:34;;;;;;;13.30;9.88;;;;;;;10.70;56.86;101594.91;5073067;28;20034;-45
2022/05/01 04:50:00;;;;;;;12.40;9.57;;;;;;;10.70;56.55;101586.84;5072539;28;20024;-44
2022/05/01 04:52:26;;;;;;;13.35;9.48;;;;;;;10.70;56.59;101589.53;5072977;28;20032;-44
2022/05/01 04:54:51;;;;;;;10.35;9.25;;;;;;;10.64;56.43;101591.06;5056742;28;20053;-43
2022/05/01 04:57:17;;;;;;;12.65;9.35;;;;;;;10.70;56.60;101594.06;5078136;28;20123;-43
2022/05/01 04:59:43;;;;;;;11.40;10.00;;;;;;;10.73;56.89;101599.09;5075094;28;20404;-43
2022/05/01 05:02:09;;;;;;;12.82;10.65;;;;;;;10.67;56.44;101580.97;5074002;28;20025;-45
2022/05/01 05:04:35;;;;;;;11.32;8.70;;;;;;;10.62;56.17;101570.72;5056179;28;20027;-44
2022/05/01 05:07:01;;;;;;;10.35;9.02;;;;;;;10.78;56.00;101591.38;5074389;28;20036;-44
2022/05/01 05:12:13;;;;;;;10.35;9.35;;;;;;;10.89;56.45;101599.13;5058475;28;20036;-43
2022/05/01 05:14:38;;;;;;;16.13;10.32;;;;;;;10.85;56.29;101592.41;5055013;28;20025;-43
2022/05/01 05:17:06;;;;;;;11.00;9.90;;;;;;;10.95;56.15;101609.19;5072700;28;20486;-45
2022/05/01 05:19:34;;;;;;;10.35;9.27;;;;;;;11.00;56.10;101611.38;5054501;28;20097;-43
2022/05/01 05:22:00;;;;;;;14.23;10.70;;;;;;;10.99;56.33;101598.94;5055008;28;20297;-45
2022/05/01 05:24:25;;;;;;;11.15;9.25;;;;;;;11.06;55.94;101605.31;5054222;28;20032;-48
2022/05/01 05:26:51;;;;;;;14.15;10.50;;;;;;;10.97;56.54;101596.41;5054384;28;20038;-44
2022/05/01 05:29:17;;;;;;;18.60;9.63;;;;;;;11.06;56.42;101612.56;5072654;28;20032;-44
2022/05/01 05:31:43;;;;;;;17.05;10.57;;;;;;;10.97;56.84;101596.41;5072468;28;20036;-43
2022/05/01 05:34:08;;;;;;;12.57;10.38;;;;;;;11.02;56.69;101610.19;5038418;28;20024;-45
2022/05/01 05:36:34;;;;;;;14.95;10.68;;;;;;;11.07;56.84;101623.16;5072209;28;20128;-44
2022/05/01 05:39:00;;;;;;;12.93;9.23;;;;;;;11.06;56.73;101613.38;5072275;28;20302;-44
2022/05/01 05:41:26;;;;;;;12.63;10.80;;;;;;;11.00;57.02;101617.59;5054516;28;20140;-43
2022/05/01 05:43:52;;;;;;;14.70;11.10;;;;;;;10.98;56.68;101614.25;5057615;28;20039;-45
2022/05/01 05:46:17;;;;;;;17.92;11.15;;;;;;;11.03;57.16;101619.97;5075523;28;20167;-43
2022/05/01 05:48:43;;;;;;;12.18;10.52;;;;;;;10.95;56.72;101603.81;5075989;28;20033;-42
2022/05/01 05:51:09;;;;;;;17.17;11.40;;;;;;;11.00;57.22;101614.06;5057546;28;20033;-44
2022/05/01 05:53:35;;;;;;;15.25;9.80;;;;;;;10.90;57.17;101602.63;5075662;28;20092;-44
2022/05/01 05:56:01;;;;;;;11.88;10.68;;;;;;;10.94;57.80;101609.34;5075404;28;20035;-45
2022/05/01 05:58:26;;;;;;;11.25;9.75;;;;;;;10.86;57.44;101599.44;5075625;28;20032;-44
2022/05/01 06:00:52;;;;;;;11.07;9.75;;;;;;;10.97;56.94;101617.91;5075549;28;20471;-43
2022/05/01 06:03:19;;;;;;;15.40;10.50;;;;;;;10.99;57.49;101626.66;5075614;28;20149;-42
2022/05/01 06:05:46;;;;;;;19.38;11.80;;;;;;;10.94;57.88;101612.91;5075218;28;20111;-45
2022/05/01 06:08:12;;;;;;;15.73;11.65;;;;;;;11.00;57.16;101617.59;5075399;28;20060;-45
2022/05/01 06:10:39;;;;;;;10.93;9.77;;;;;;;11.11;57.10;101621.78;5075180;28;20086;-45
2022/05/01 06:13:05;;;;;;;16.25;11.75;;;;;;;11.19;57.32;101618.25;5075132;28;20029;-42
2022/05/01 06:15:31;;;;;;;17.48;12.15;;;;;;;11.33;57.07;101619.41;5075249;28;20039;-43
2022/05/01 06:17:56;;;;;;;15.48;11.13;;;;;;;11.46;56.61;101616.19;5075464;28;20024;-42
2022/05/01 06:20:22;;;;;;;11.32;9.38;;;;;;;11.51;55.74;101597.69;5075753;28;20021;-44
2022/05/01 06:22:51;;;;;;;15.10;10.77;;;;;;;11.67;55.86;101618.34;5057502;28;20422;-44
2022/05/01 06:25:17;;;;;;;13.68;10.18;;;;;;;11.59;55.67;101592.31;5056631;28;20028;-45
2022/05/01 06:27:43;;;;;;;10.52;8.93;;;;;;;11.78;55.66;101609.91;5075165;28;20449;-43
2022/05/01 06:30:11;;;;;;;13.32;10.25;;;;;;;11.76;55.40;101595.78;5075209;28;20041;-43
2022/05/01 06:32:39;;;;;;;12.38;10.32;;;;;;;11.80;54.77;101603.31;5075050;28;20032;-43
2022/05/01 06:35:07;;;;;;;12.82;9.50;;;;;;;12.03;54.70;101621.44;5056959;28;20028;-45
2022/05/01 06:37:36;;;;;;;14.25;10.73;;;;;;;12.11;54.01;101616.03;5075822;28;20522;-54
2022/05/01 06:40:03;;;;;;;10.05;8.85;;;;;;;12.25;53.42;101613.63;5075092;28;20047;-43
2022/05/01 06:42:30;;;;;;;16.88;10.85;;;;;;;12.39;53.05;101612.88;5075437;28;20103;-43
2022/05/01 06:44:56;;;;;;;12.68;9.45;;;;;;;12.47;52.57;101611.97;5074871;28;20048;-43
2022/05/01 06:47:21;;;;;;;15.60;8.93;;;;;;;12.45;52.66;101611.31;5074365;28;20459;-45
2022/05/01 06:49:47;;;;;;;12.40;9.65;;;;;;;12.42;52.15;101596.31;5074854;28;20029;-44
2022/05/01 06:52:13;;;;;;;10.90;8.30;;;;;;;12.56;52.19;101605.53;5074540;28;20040;-44
2022/05/01 06:54:39;;;;;;;16.67;9.13;;;;;;;12.61;52.11;101602.28;5074942;28;20028;-45
2022/05/01 06:57:05;;;;;;;11.68;8.02;;;;;;;12.68;51.57;101604.06;5075005;28;20036;-42
2022/05/01 06:59:31;;;;;;;11.68;8.25;;;;;;;12.75;51.47;101591.56;5074404;28;20048;-44
2022/05/01 07:01:57;;;;;;;15.35;9.93;;;;;;;12.64;51.76;101586.59;5074579;28;20384;-43
2022/05/01 07:04:23;;;;;;;9.27;7.15;;;;;;;12.74;51.60;101594.44;5056134;28;20028;-44
2022/05/01 07:06:48;;;;;;;12.82;8.90;;;;;;;12.80;50.58;101585.63;5056441;28;20029;-44
2022/05/01 07:09:14;;;;;;;11.23;7.93;;;;;;;12.83;49.59;101589.81;5074349;28;20028;-42
2022/05/01 07:11:40;;;;;;;9.10;8.20;;;;;;;12.87;49.54;101604.59;5074599;28;20356;-45
2022/05/01 07:14:06;;;;;;;10.55;8.73;;;;;;;12.89;49.50;101600.72;5075200;28;20036;-44
2022/05/01 07:16:31;;;;;;;13.18;8.38;;;;;;;12.90;48.98;101593.47;5076052;28;20036;-44
2022/05/01 07:18:57;;;;;;;10.15;8.27;;;;;;;13.02;49.28;101600.13;5057409;28;20036;-43
2022/05/01 07:21:23;;;;;;;11.93;8.85;;;;;;;13.09;49.53;101603.78;5057044;28;20028;-44
2022/05/01 07:23:48;;;;;;;9.35;8.02;;;;;;;13.20;49.02;101605.16;5040409;28;20056;-44
2022/05/01 07:26:14;;;;;;;10.98;7.65;;;;;;;13.35;49.30;101602.53;5039617;28;20079;-44
2022/05/01 07:28:40;;;;;;;8.43;7.45;;;;;;;13.46;49.22;101610.16;5056020;28;20063;-44
2022/05/01 07:31:06;;;;;;;7.22;6.28;;;;;;;13.54;48.22;101607.41;5056361;28;20043;-42
2022/05/01 07:33:31;;;;;;;11.38;7.55;;;;;;;13.65;47.79;101607.94;5073555;28;20488;-44
2022/05/01 07:35:58;;;;;;;8.98;6.97;;;;;;;13.74;48.11;101599.59;5073943;28;20464;-43
2022/05/01 07:38:24;;;;;;;7.75;6.47;;;;;;;13.84;46.84;101595.78;5073832;28;20326;-49
2022/05/01 07:40:50;;;;;;;7.57;6.80;;;;;;;13.79;45.61;101585.50;5073771;28;20032;-44
2022/05/01 07:43:16;;;;;;;7.00;6.30;;;;;;;14.00;46.47;101600.13;5073465;28;20036;-44
2022/05/01 07:45:43;;;;;;;6.95;6.05;;;;;;;14.16;45.67;101609.88;5068225;28;20048;-43
2022/05/01 07:48:09;;;;;;;9.73;6.75;;;;;;;14.31;45.38;101605.28;5058843;28;20027;-42
2022/05/01 07:50:35;;;;;;;7.95;7.15;;;;;;;14.36;45.16;101577.66;5075375;28;20028;-42
2022/05/01 07:53:00;;;;;;;10.82;6.07;;;;;;;14.18;44.45;101541.13;5075608;28;20035;-43
2022/05/01 07:55:26;;;;;;;8.70;6.90;;;;;;;14.49;43.42;101583.25;5093910;28;20080;-43
2022/05/01 07:57:52;;;;;;;7.20;6.60;;;;;;;14.63;43.04;101585.06;5093743;28;20379;-45
2022/05/01 08:00:18;;;;;;;6.93;6.32;;;;;;;14.76;42.66;101597.88;5094093;28;20552;-43
2022/05/01 08:05:30;;;;;;;8.18;6.40;;;;;;;15.03;42.45;101603.53;5060818;28;20173;-43
2022/05/01 08:07:57;;;;;;;8.82;6.55;;;;;;;14.96;41.96;101594.53;5093207;28;20487;-44
2022/05/01 08:10:23;;;;;;;7.13;6.53;;;;;;;15.05;42.67;101590.66;5093240;28;20103;-44
2022/05/01 08:12:49;;;;;;;9.85;6.45;;;;;;;15.03;43.22;101598.13;5093183;28;20442;-43
2022/05/01 08:15:18;;;;;;;8.38;7.03;;;;;;;14.97;43.19;101598.88;5093125;28;20035;-44
2022/05/01 08:17:45;;;;;;;8.20;7.45;;;;;;;14.92;43.38;101599.50;5075144;28;20317;-43
2022/05/01 08:23:06;;;;;;;10.57;9.15;;;;;;;15.01;42.88;101597.50;5047276;28;20027;-43
2022/05/01 08:25:32;;;;;;;;;;;;;;;15.12;42.95;101594.25;5075656;28;20038;-44
2022/05/01 08:27:58;;;;;;;12.52;9.57;;;;;;;15.01;43.13;101582.09;5093273;28;19995;-45
2022/05/01 08:30:23;;;;;;;9.98;8.90;;;;;;;15.13;43.05;101600.50;5075142;28;20063;-45
2022/05/01 08:32:49;;;;;;;16.17;8.88;;;;;;;15.12;43.11;101604.22;5075123;28;20201;-45
2022/05/01 08:35:15;;;;;;;12.55;9.10;;;;;;;15.13;43.13;101603.19;5074466;28;20119;-49
2022/05/01 08:37:40;;;;;;;10.80;9.45;;;;;;;15.18;42.81;101600.75;5092723;28;20034;-44
2022/05/01 08:40:08;;;;;;;11.60;10.13;;;;;;;15.07;42.60;101602.94;5093026;28;20110;-43
2022/05/01 08:42:36;;;;;;;12.35;9.57;;;;;;;15.20;43.83;101599.50;5093240;28;20050;-44
2022/05/01 08:45:03;;;;;;;17.48;11.13;;;;;;;15.14;43.96;101591.34;5077553;28;20113;-43
2022/05/01 08:47:40;;;;;;;16.40;11.32;;;;;;;15.28;44.04;101609.34;5094628;28;20028;-45
2022/05/01 08:50:08;;;;;;;13.85;10.60;;;;;;;15.36;43.71;101619.19;5079809;28;20028;-42
2022/05/01 08:52:36;;;;;;;13.80;11.15;;;;;;;15.06;43.37;101595.00;5085523;28;20028;-43
2022/05/01 08:55:05;;;;;;;13.93;10.75;;;;;;;15.41;43.74;101614.03;5101547;28;20054;-42
2022/05/01 08:57:33;;;;;;;12.93;10.38;;;;;;;15.32;43.80;101599.78;5103459;28;20043;-43
2022/05/01 08:59:59;;;;;;;12.90;10.25;;;;;;;15.36;43.84;101616.47;5080065;28;20027;-44
2022/05/01 09:02:25;;;;;;;15.98;10.45;;;;;;;15.38;43.91;101620.69;5096505;28;20494;-43
2022/05/01 09:04:51;;;;;;;11.65;10.43;;;;;;;15.46;44.03;101615.09;5095599;28;20032;-43
2022/05/01 09:07:17;;;;;;;13.65;11.45;;;;;;;15.62;43.98;101610.41;5075194;28;20024;-43
2022/05/01 09:09:43;;;;;;;11.23;10.00;;;;;;;15.46;43.55;101608.84;5093426;28;20032;-44
2022/05/01 09:14:56;;;;;;;15.93;10.88;;;;;;;15.07;44.54;101612.94;5078752;28;20095;-43
2022/05/01 09:17:23;;;;;;;15.75;10.07;;;;;;;14.98;44.06;101609.53;5095751;28;20106;-45
2022/05/01 09:19:53;;;;;;;11.95;9.80;;;;;;;14.94;44.04;101619.06;5078863;28;20039;-43
2022/05/01 09:22:20;;;;;;;10.80;8.82;;;;;;;14.92;44.07;101617.59;5078624;28;20450;-42
2022/05/01 09:24:53;;;;;;;9.60;8.57;;;;;;;14.77;42.83;101621.19;5096247;28;20081;-42
2022/05/01 09:27:35;;;;;;;9.65;7.97;;;;;;;14.66;43.16;101621.72;5096966;28;20024;-43
2022/05/01 09:30:16;;;;;;;9.13;6.97;;;;;;;14.56;41.88;101631.94;5096395;28;20107;-42
2022/05/01 09:32:43;;;;;;;7.63;6.90;;;;;;;14.42;41.72;101626.41;5098894;28;20028;-44
2022/05/01 09:35:25;;;;;;;7.57;6.88;;;;;;;14.31;41.72;101613.38;5099916;28;20371;-42
2022/05/01 09:38:25;;;;;;;8.05;7.25;;;;;;;14.39;43.04;101624.06;5085084;28;20028;-42
2022/05/01 09:40:54;;;;;;;7.32;5.53;;;;;;;14.60;42.81;101623.31;5097799;28;20035;-42
2022/05/01 09:43:42;;;;;;;43.25;5.55;;;;;;;14.75;40.21;101622.44;5079608;28;20024;-43
2022/05/01 09:46:20;;;;;;;3.50;3.20;;;;;;;14.84;39.50;101619.41;5064992;28;20032;-42
2022/05/01 09:49:07;;;;;;;3.80;3.33;;;;;;;15.06;38.95;101627.47;5096878;28;20577;-44
2022/05/01 09:51:35;;;;;;;4.53;4.13;;;;;;;14.99;39.30;101623.88;5064891;28;20032;-43
2022/05/01 09:54:03;;;;;;;4.93;4.43;;;;;;;14.96;40.83;101619.69;5096001;28;20535;-42
2022/05/01 09:56:42;;;;;;;5.85;5.25;;;;;;;15.05;41.09;101625.81;5077926;28;20028;-42
2022/05/01 09:59:08;;;;;;;6.85;6.15;;;;;;;14.92;40.59;101621.13;5077798;28;20032;-43
2022/05/01 10:01:34;;;;;;;6.88;5.63;;;;;;;14.97;41.22;101615.13;5096061;28;20031;-43
2022/05/01 10:04:02;;;;;;;5.72;5.20;;;;;;;15.07;40.59;101618.34;5096061;28;20024;-44
2022/05/01 10:06:31;;;;;;;7.13;5.30;;;;;;;15.12;40.43;101620.44;5095426;28;20456;-42
2022/05/01 10:08:57;;;;;;;5.95;5.40;;;;;;;15.13;40.49;101604.03;5077989;28;20031;-43
2022/05/01 10:11:26;;;;;;;6.32;4.45;;;;;;;15.18;40.02;101619.69;5095631;28;20066;-42
2022/05/01 10:13:52;;;;;;;4.85;4.18;;;;;;;15.16;40.57;101606.34;5095964;28;20024;-44
2022/05/01 10:16:17;;;;;;;6.68;3.10;;;;;;;15.21;39.57;101611.16;5095526;28;20024;-43
2022/05/01 10:18:45;;;;;;;3.45;3.15;;;;;;;15.17;40.07;101612.59;5095814;28;20076;-43
2022/05/01 10:21:12;;;;;;;3.67;2.85;;;;;;;15.23;40.10;101609.09;5095390;28;20057;-43
2022/05/01 10:23:39;;;;;;;2.80;2.50;;;;;;;15.08;39.92;101617.28;5094986;28;20468;-44
2022/05/01 10:26:16;;;;;;;2.80;2.60;;;;;;;15.03;39.72;101614.34;5095301;28;20047;-43
2022/05/01 10:29:21;;;;;;;3.13;2.58;;;;;;;14.85;38.98;101615.63;5095140;28;20066;-43
2022/05/01 10:32:23;;;;;;;3.40;2.95;;;;;;;14.78;40.05;101603.91;5063097;28;20028;-43
2022/05/01 10:35:28;;;;;;;3.70;2.90;;;;;;;14.85;39.38;101610.22;5082834;28;20024;-43
2022/05/01 10:38:07;;;;;;;4.13;3.38;;;;;;;14.96;39.64;101602.63;5069410;28;20129;-43
2022/05/01 10:40:39;;;;;;;7.90;3.30;;;;;;;14.70;40.03;101591.38;5095238;28;20024;-43
2022/05/01 10:43:26;;;;;;;4.47;4.07;;;;;;;14.94;40.12;101596.59;5094994;28;20095;-43
2022/05/01 10:45:58;;;;;;;5.13;4.05;;;;;;;14.91;40.21;101608.63;5062720;28;20113;-43
2022/05/01 10:48:41;;;;;;;5.93;4.22;;;;;;;14.98;40.45;101597.88;5095634;28;20095;-44
2022/05/01 10:51:48;;;;;;;4.55;4.15;;;;;;;14.86;40.18;101595.69;5095701;28;20077;-43
2022/05/01 10:54:33;;;;;;;5.65;3.92;;;;;;;14.73;40.91;101603.69;5063091;28;20484;-45
2022/05/01 10:57:10;;;;;;;4.70;3.70;;;;;;;14.73;41.29;101605.53;5095127;28;20551;-43
2022/05/01 10:59:43;;;;;;;7.63;3.83;;;;;;;14.75;41.48;101598.09;5077221;28;20031;-43
2022/05/01 11:02:31;;;;;;;3.58;3.15;;;;;;;14.66;41.01;101589.25;5077079;28;20032;-44
2022/05/01 11:04:58;;;;;;;2.20;2.00;;;;;;;14.46;40.07;101599.84;5080135;28;20120;-44
2022/05/01 11:07:26;;;;;;;3.40;1.98;;;;;;;14.39;40.15;101598.91;5094378;28;20085;-43
2022/05/01 11:09:55;;;;;;;3.42;2.00;;;;;;;14.19;40.39;101583.31;5094001;28;20387;-44
2022/05/01 11:12:22;;;;;;;2.72;1.98;;;;;;;14.13;40.53;101595.72;5094058;28;20055;-46
2022/05/01 11:14:51;;;;;;;2.80;2.20;;;;;;;14.18;40.99;101587.03;5076456;28;20082;-43
2022/05/01 11:17:50;;;;;;;4.82;2.10;;;;;;;14.32;41.16;101604.25;5094276;28;20477;-44
2022/05/01 11:20:29;;;;;;;5.50;2.70;;;;;;;14.35;40.46;101590.34;5081254;28;20086;-43
2022/05/01 11:22:55;;;;;;;6.68;2.65;;;;;;;14.50;40.58;101596.56;5094285;28;20483;-44
2022/05/01 11:25:42;;;;;;;3.85;2.50;;;;;;;14.69;40.22;101587.00;5094586;28;20078;-44
2022/05/01 11:28:08;;;;;;;3.03;2.80;;;;;;;14.74;40.34;101570.19;5079354;28;20039;-44
2022/05/01 11:30:37;;;;;;;5.05;2.53;;;;;;;14.93;40.18;101567.84;5095221;28;20344;-46
2022/05/01 11:33:09;;;;;;;2.72;2.53;;;;;;;15.09;40.07;101579.22;5094190;28;20468;-46
2022/05/01 11:36:02;;;;;;;3.40;2.92;;;;;;;15.19;40.01;101570.78;5093867;28;20032;-44
2022/05/01 11:38:51;;;;;;;5.20;3.45;;;;;;;15.33;39.71;101570.88;5080277;28;20089;-47
2022/05/01 11:41:41;;;;;;;3.50;2.50;;;;;;;15.35;39.34;101558.81;5079069;28;20427;-44
2022/05/01 11:44:23;;;;;;;3.28;2.78;;;;;;;15.34;38.70;101572.53;5062201;28;20451;-45
2022/05/01 11:46:49;;;;;;;4.88;2.63;;;;;;;15.44;39.27;101559.50;5094999;28;20028;-45
2022/05/01 11:49:15;;;;;;;2.60;2.40;;;;;;;15.44;39.69;101545.97;5095974;28;20131;-44